Time;durP1;ratioP1;P1;durP2;ratioP2;P2;SDS_P1;SDS_P2;PMS_P1;PMS_P2;Temp;Humidity;BMP_temperature;BMP_pressure;BME280_temperature;BME280_humidity;BME280_pressure;Samples;Min_cycle;Max_cycle;Signal;HPM_P1;HPM_P2
2022/11/30 19:34:09;;;;;;;52.28;23.38;;;16.00;53.20;;;;;;5076831;27;20444;-59
2022/11/30 19:36:36;;;;;;;60.55;27.17;;;15.90;54.90;;;;;;5063076;28;20509;-61
2022/11/30 19:39:03;;;;;;;55.08;25.08;;;16.00;55.70;;;;;;5062741;28;20044;-68
2022/11/30 19:41:30;;;;;;;49.83;23.55;;;16.20;56.00;;;;;;5059633;28;20464;-62
2022/11/30 19:44:00;;;;;;;53.45;24.95;;;16.40;56.20;;;;;;5063953;28;20051;-63
2022/11/30 19:46:27;;;;;;;59.60;27.92;;;16.50;56.10;;;;;;5062989;28;20037;-59
2022/11/30 19:48:59;;;;;;;64.75;29.95;;;16.70;56.00;;;;;;5063533;28;20505;-64
2022/11/30 19:51:29;;;;;;;62.30;30.52;;;16.80;55.70;;;;;;5064447;28;20567;-57
2022/11/30 19:53:58;;;;;;;64.55;30.17;;;17.00;55.50;;;;;;5064441;28;20056;-60
2022/11/30 19:56:26;;;;;;;60.13;31.15;;;17.10;55.30;;;;;;5064775;28;20045;-60
2022/11/30 19:58:55;;;;;;;56.97;28.67;;;17.20;55.50;;;;;;5063832;28;20123;-64
2022/11/30 20:01:24;;;;;;;62.95;28.55;;;17.30;54.60;;;;;;5064721;28;20124;-62
2022/11/30 20:03:52;;;;;;;64.03;31.55;;;17.40;54.40;;;;;;5064767;28;20068;-73
2022/11/30 20:06:20;;;;;;;59.63;29.63;;;17.40;54.10;;;;;;5063239;28;20052;-55
2022/11/30 20:08:48;;;;;;;55.25;25.83;;;17.50;54.00;;;;;;5061421;28;20040;-61
2022/11/30 20:11:16;;;;;;;52.63;25.73;;;17.50;53.70;;;;;;5064370;28;20140;-58
2022/11/30 20:13:44;;;;;;;63.15;28.83;;;17.60;53.60;;;;;;5066870;28;20072;-61
2022/11/30 20:16:14;;;;;;;49.17;27.63;;;17.70;53.40;;;;;;5064309;28;20052;-59
2022/11/30 20:18:41;;;;;;;51.83;26.23;;;17.70;53.20;;;;;;5045430;28;20052;-64
2022/11/30 20:21:13;;;;;;;47.80;26.42;;;17.80;53.10;;;;;;5063842;28;20095;-61
2022/11/30 20:23:41;;;;;;;49.97;25.92;;;17.80;52.90;;;;;;5064053;28;20041;-64
2022/11/30 20:26:14;;;;;;;49.95;23.38;;;17.80;52.80;;;;;;5064454;28;20139;-62
2022/11/30 20:28:42;;;;;;;38.85;21.58;;;17.90;52.70;;;;;;5063785;28;20052;-58
2022/11/30 20:31:09;;;;;;;41.30;23.13;;;17.90;52.70;;;;;;5059857;28;20435;-59
2022/11/30 20:33:37;;;;;;;43.15;24.13;;;17.90;52.50;;;;;;5058207;28;20071;-64
2022/11/30 20:36:06;;;;;;;39.95;22.17;;;18.00;52.50;;;;;;5059776;28;20045;-58
2022/11/30 20:38:33;;;;;;;30.05;17.85;;;18.00;52.40;;;;;;5063073;28;20040;-56
2022/11/30 20:41:02;;;;;;;36.53;19.50;;;18.00;52.20;;;;;;5063409;28;20045;-70
2022/11/30 20:43:30;;;;;;;36.47;18.65;;;18.10;52.20;;;;;;5059783;28;20110;-65
2022/11/30 20:45:57;;;;;;;29.35;16.67;;;18.10;52.10;;;;;;5049756;28;20033;-67
2022/11/30 20:48:24;;;;;;;27.38;17.30;;;18.10;52.10;;;;;;5049166;28;20044;-63
2022/11/30 20:50:52;;;;;;;36.85;15.50;;;18.00;52.10;;;;;;5049852;28;20033;-61
2022/11/30 20:53:19;;;;;;;21.45;12.77;;;18.00;52.10;;;;;;5048193;28;20469;-63
2022/11/30 20:55:46;;;;;;;24.20;13.02;;;18.00;52.10;;;;;;5049694;28;20055;-69
2022/11/30 20:58:13;;;;;;;32.95;16.52;;;18.00;52.10;;;;;;5050213;28;20095;-68
2022/11/30 21:00:42;;;;;;;38.33;19.95;;;18.10;52.20;;;;;;5048946;28;20037;-61
2022/11/30 21:03:09;;;;;;;52.45;27.23;;;18.10;52.20;;;;;;5048913;28;20583;-64
2022/11/30 21:05:38;;;;;;;68.05;35.15;;;18.10;52.20;;;;;;5049202;28;20039;-68
2022/11/30 21:08:07;;;;;;;81.90;38.88;;;18.10;52.00;;;;;;5048359;28;20417;-70
2022/11/30 21:10:37;;;;;;;77.57;37.75;;;18.10;51.90;;;;;;5047017;28;20037;-70
2022/11/30 21:13:04;;;;;;;79.03;41.85;;;18.10;51.80;;;;;;5047436;28;20091;-70
2022/11/30 21:15:31;;;;;;;83.75;40.50;;;18.10;51.70;;;;;;5044653;28;20048;-71
2022/11/30 21:17:59;;;;;;;80.40;39.20;;;18.10;51.60;;;;;;5047951;28;20159;-71
2022/11/30 21:20:26;;;;;;;82.00;38.90;;;18.10;51.50;;;;;;5049968;28;20066;-72
2022/11/30 21:22:53;;;;;;;73.82;37.35;;;18.10;51.50;;;;;;5049455;28;20067;-67
2022/11/30 21:25:20;;;;;;;78.60;37.10;;;18.10;51.60;;;;;;5050336;28;20048;-65
2022/11/30 21:27:51;;;;;;;68.65;35.17;;;18.10;51.60;;;;;;5048504;28;20048;-60
2022/11/30 21:30:18;;;;;;;75.10;34.70;;;18.10;51.70;;;;;;5050325;28;20037;-66
2022/11/30 21:32:45;;;;;;;73.97;36.78;;;18.10;51.70;;;;;;5049068;28;20053;-64
2022/11/30 21:35:16;;;;;;;64.13;33.63;;;18.10;51.70;;;;;;5051374;28;20067;-68
2022/11/30 21:37:44;;;;;;;73.40;34.53;;;18.10;51.60;;;;;;5047873;28;20051;-65
2022/11/30 21:40:11;;;;;;;73.60;38.13;;;18.10;51.60;;;;;;5051584;28;20056;-69
2022/11/30 21:42:39;;;;;;;82.88;39.67;;;18.20;51.70;;;;;;5049552;28;20048;-61
2022/11/30 21:45:06;;;;;;;83.03;40.80;;;18.20;51.60;;;;;;5047865;28;20043;-62
2022/11/30 21:47:33;;;;;;;80.55;40.83;;;18.20;51.60;;;;;;5049502;28;20041;-61
2022/11/30 21:50:01;;;;;;;77.82;40.38;;;18.20;51.60;;;;;;5047673;28;20037;-65
2022/11/30 21:52:29;;;;;;;76.30;37.42;;;18.20;51.60;;;;;;5052094;28;20060;-71
2022/11/30 21:54:56;;;;;;;74.93;38.22;;;18.30;51.60;;;;;;5059558;28;20133;-67
2022/11/30 21:57:23;;;;;;;81.65;38.17;;;18.30;51.60;;;;;;5046831;28;20088;-69
2022/11/30 21:59:50;;;;;;;73.00;35.97;;;18.30;51.60;;;;;;5049954;28;20129;-62
2022/11/30 22:02:17;;;;;;;67.75;34.78;;;18.30;52.10;;;;;;5046630;28;20048;-66
2022/11/30 22:04:44;;;;;;;59.72;30.92;;;18.30;51.50;;;;;;5049593;28;20047;-69
2022/11/30 22:07:12;;;;;;;62.65;30.52;;;18.40;51.60;;;;;;5050360;28;20772;-71
2022/11/30 22:09:40;;;;;;;56.60;27.60;;;18.40;51.60;;;;;;5051161;28;20049;-77
2022/11/30 22:12:07;;;;;;;56.10;25.25;;;18.40;51.50;;;;;;5049158;28;20045;-61
2022/11/30 22:14:35;;;;;;;53.72;25.98;;;18.40;51.50;;;;;;5048261;28;20063;-59
2022/11/30 22:17:02;;;;;;;47.35;23.85;;;18.40;52.00;;;;;;5047495;28;20042;-59
2022/11/30 22:19:29;;;;;;;47.00;23.58;;;18.40;51.30;;;;;;5047469;28;20160;-64
2022/11/30 22:21:58;;;;;;;44.28;21.48;;;18.50;51.30;;;;;;5048277;28;20048;-73
2022/11/30 22:24:25;;;;;;;39.75;19.98;;;18.50;51.20;;;;;;5046961;28;20095;-71
2022/11/30 22:26:54;;;;;;;42.97;19.10;;;18.50;51.00;;;;;;5048470;28;20060;-70
2022/11/30 22:29:23;;;;;;;36.58;17.42;;;18.50;50.90;;;;;;5048042;28;20422;-72
2022/11/30 22:31:52;;;;;;;33.47;17.67;;;18.60;50.70;;;;;;5047573;28;20045;-71
2022/11/30 22:34:19;;;;;;;34.72;16.30;;;18.60;50.60;;;;;;5047977;28;20045;-71
2022/11/30 22:36:46;;;;;;;33.38;15.02;;;18.60;50.50;;;;;;5046917;28;20492;-71
2022/11/30 22:39:16;;;;;;;29.40;14.95;;;18.60;50.40;;;;;;5048455;28;20045;-71
2022/11/30 22:41:44;;;;;;;31.95;14.68;;;18.70;50.30;;;;;;5045914;28;20542;-71
2022/11/30 22:44:13;;;;;;;27.70;15.05;;;18.70;50.20;;;;;;5047852;28;20045;-69
2022/11/30 22:46:42;;;;;;;28.90;15.00;;;18.70;50.20;;;;;;5046024;28;20166;-69
2022/11/30 22:49:12;;;;;;;23.75;14.43;;;18.70;50.10;;;;;;5047337;28;20041;-71
2022/11/30 22:51:39;;;;;;;27.75;13.85;;;18.70;50.20;;;;;;5047281;28;20099;-69
2022/11/30 22:54:07;;;;;;;22.08;12.23;;;18.70;50.10;;;;;;5047162;28;20071;-69
2022/11/30 22:56:37;;;;;;;22.98;11.27;;;18.70;50.00;;;;;;5047127;28;20147;-69
2022/11/30 22:59:05;;;;;;;20.17;10.90;;;18.80;50.00;;;;;;5047176;28;20130;-69
2022/11/30 23:01:36;;;;;;;19.25;12.35;;;18.80;50.00;;;;;;5046774;28;20471;-68
2022/11/30 23:04:05;;;;;;;17.35;11.40;;;18.80;49.80;;;;;;5045446;28;20041;-71
2022/11/30 23:06:33;;;;;;;27.40;11.52;;;18.80;49.70;;;;;;5048913;28;20106;-70
2022/11/30 23:09:01;;;;;;;24.58;9.90;;;18.80;49.90;;;;;;5043541;28;20076;-70
2022/11/30 23:11:30;;;;;;;21.52;10.30;;;18.80;49.90;;;;;;5046339;28;20043;-70
2022/11/30 23:13:57;;;;;;;16.55;9.05;;;18.80;49.80;;;;;;5046403;28;20148;-69
2022/11/30 23:16:24;;;;;;;21.55;9.98;;;18.80;49.80;;;;;;5046272;28;20037;-69
2022/11/30 23:18:55;;;;;;;19.67;9.27;;;18.80;49.80;;;;;;5043969;28;20037;-69
2022/11/30 23:21:24;;;;;;;12.63;8.18;;;18.80;49.80;;;;;;5046832;28;20424;-69
2022/11/30 23:23:52;;;;;;;17.08;9.07;;;18.80;49.80;;;;;;5043041;28;20088;-69
2022/11/30 23:26:21;;;;;;;14.88;10.45;;;18.70;49.70;;;;;;5044040;28;20040;-69
2022/11/30 23:28:51;;;;;;;15.18;7.85;;;18.70;49.70;;;;;;5046750;28;20124;-68
2022/11/30 23:31:20;;;;;;;22.58;7.97;;;18.70;49.70;;;;;;5053726;28;20741;-68
2022/11/30 23:33:48;;;;;;;16.40;8.98;;;18.70;49.70;;;;;;5046483;28;20087;-69
2022/11/30 23:36:18;;;;;;;15.30;7.03;;;18.70;49.70;;;;;;5046816;28;20127;-68
2022/11/30 23:38:45;;;;;;;15.35;8.50;;;18.70;49.70;;;;;;5046948;28;20029;-68
2022/11/30 23:41:14;;;;;;;10.68;6.85;;;18.70;49.70;;;;;;5046928;28;20137;-69
2022/11/30 23:43:41;;;;;;;15.57;7.65;;;18.70;49.70;;;;;;5047094;28;20045;-69
2022/11/30 23:46:10;;;;;;;19.08;7.97;;;18.70;49.70;;;;;;5047248;28;20080;-71
2022/11/30 23:48:37;;;;;;;11.57;6.55;;;18.60;49.70;;;;;;5046900;28;20045;-70
2022/11/30 23:51:04;;;;;;;16.42;8.10;;;18.60;49.80;;;;;;5046616;28;20576;-70
2022/11/30 23:53:34;;;;;;;15.73;6.97;;;18.60;49.80;;;;;;5047033;28;20049;-70
2022/11/30 23:56:04;;;;;;;13.02;6.97;;;18.60;49.90;;;;;;5046948;28;20047;-71
2022/11/30 23:58:33;;;;;;;10.90;6.00;;;18.50;49.80;;;;;;5028966;28;20056;-69
